Time;durP1;ratioP1;P1;durP2;ratioP2;P2;SDS_P1;SDS_P2;PMS_P1;PMS_P2;Temp;Humidity;BMP_temperature;BMP_pressure;BME280_temperature;BME280_humidity;BME280_pressure;Samples;Min_cycle;Max_cycle;Signal;HPM_P1;HPM_P2
2023/03/06 00:02:04;;;;;;;;;;;;;;;4.01;100.00;97162.38;5076828;28;19931;-78
2023/03/06 00:04:32;;;;;;;;;;;;;;;4.05;100.00;97165.34;5065867;28;19928;-79
2023/03/06 00:06:58;;;;;;;;;;;;;;;4.01;100.00;97159.75;5057535;28;19932;-78
2023/03/06 00:09:25;;;;;;;;;;;;;;;4.05;100.00;97145.03;5071139;28;19935;-78
2023/03/06 00:11:51;;;;;;;;;;;;;;;4.08;100.00;97144.53;5067073;28;19928;-78
2023/03/06 00:14:17;;;;;;;;;;;;;;;4.11;100.00;97137.97;5065342;28;20609;-78
2023/03/06 00:16:44;;;;;;;;;;;;;;;4.12;100.00;97150.13;5077952;28;19924;-78
2023/03/06 00:19:10;;;;;;;;;;;;;;;3.88;100.00;97148.66;5064473;28;19950;-78
2023/03/06 00:21:39;;;;;;;;;;;;;;;3.81;100.00;97146.19;5068179;28;19934;-78
2023/03/06 00:24:06;;;;;;;;;;;;;;;3.60;100.00;97146.88;5073235;28;20416;-78
2023/03/06 00:26:34;;;;;;;;;;;;;;;3.63;100.00;97144.56;5065372;28;19932;-79
2023/03/06 00:29:00;;;;;;;;;;;;;;;3.73;100.00;97136.00;5054069;28;19924;-79
2023/03/06 00:31:27;;;;;;;;;;;;;;;3.74;100.00;97135.00;5076456;28;20510;-79
2023/03/06 00:33:53;;;;;;;;;;;;;;;3.55;100.00;97133.59;5075909;28;19928;-79
2023/03/06 00:36:19;;;;;;;;;;;;;;;3.45;100.00;97133.41;5078112;28;19932;-79
2023/03/06 00:38:47;;;;;;;;;;;;;;;3.32;100.00;97138.94;5078741;28;20270;-79
2023/03/06 00:41:13;;;;;;;;;;;;;;;3.35;100.00;97133.19;5059082;28;19928;-78
2023/03/06 00:43:40;;;;;;;;;;;;;;;3.37;100.00;97136.44;5060889;28;19943;-78
2023/03/06 00:46:06;;;;;;;;;;;;;;;3.52;100.00;97128.78;5061975;28;19925;-78
2023/03/06 00:48:33;;;;;;;;;;;;;;;3.63;100.00;97125.28;5078035;28;19928;-78
2023/03/06 00:50:59;;;;;;;;;;;;;;;3.67;100.00;97127.22;5057443;28;19925;-79
2023/03/06 00:53:25;;;;;;;;;;;;;;;3.74;100.00;97127.06;5060136;28;19927;-78
2023/03/06 00:55:53;;;;;;;;;;;;;;;3.74;100.00;97129.72;5047320;28;20392;-78
2023/03/06 00:58:20;;;;;;;;;;;;;;;3.69;100.00;97124.31;5048506;28;19932;-79
2023/03/06 01:00:46;;;;;;;;;;;;;;;3.77;100.00;97103.63;5056455;28;20398;-78
2023/03/06 01:03:12;;;;;;;;;;;;;;;3.79;100.00;97108.66;5059477;28;20402;-80
2023/03/06 01:05:39;;;;;;;;;;;;;;;3.80;100.00;97104.97;5046708;28;20050;-78
2023/03/06 01:08:07;;;;;;;;;;;;;;;3.79;100.00;97098.09;5075013;28;19942;-78
2023/03/06 01:10:37;;;;;;;;;;;;;;;3.74;100.00;97100.66;5070728;28;19925;-79
2023/03/06 01:13:05;;;;;;;;;;;;;;;3.68;100.00;97097.13;5066963;28;19935;-76
2023/03/06 01:15:31;;;;;;;;;;;;;;;3.69;100.00;97087.34;5064086;28;20023;-78
2023/03/06 01:17:57;;;;;;;;;;;;;;;3.67;100.00;97084.97;5051635;28;20011;-77
2023/03/06 01:20:24;;;;;;;;;;;;;;;3.70;100.00;97087.13;5079209;28;19994;-78
2023/03/06 01:22:50;;;;;;;;;;;;;;;3.72;100.00;97092.16;5081278;28;19931;-79
2023/03/06 01:25:17;;;;;;;;;;;;;;;3.77;100.00;97087.78;5080824;28;19963;-78
2023/03/06 01:27:43;;;;;;;;;;;;;;;3.48;100.00;97072.22;5079883;28;20026;-79
2023/03/06 01:30:11;;;;;;;;;;;;;;;3.28;100.00;97065.53;5075429;28;19924;-78
2023/03/06 01:32:38;;;;;;;;;;;;;;;3.34;100.00;97063.00;5077025;28;19928;-79
2023/03/06 01:35:05;;;;;;;;;;;;;;;3.47;100.00;97065.31;5074926;28;19930;-79
2023/03/06 01:37:31;;;;;;;;;;;;;;;3.56;100.00;97062.06;5080064;28;19981;-79
2023/03/06 01:39:57;;;;;;;;;;;;;;;3.64;100.00;97063.53;5074084;28;19967;-80
2023/03/06 01:42:24;;;;;;;;;;;;;;;3.71;100.00;97064.16;5074386;28;19928;-79
2023/03/06 01:44:57;;;;;;;;;;;;;;;3.68;100.00;97060.16;5067914;28;19935;-79
2023/03/06 01:47:25;;;;;;;;;;;;;;;3.67;100.00;97053.28;5059875;28;19928;-80
2023/03/06 01:49:51;;;;;;;;;;;;;;;3.77;100.00;97055.28;5056650;28;19924;-79
2023/03/06 01:52:19;;;;;;;;;;;;;;;3.77;100.00;97048.19;5077039;28;19928;-78
2023/03/06 01:54:48;;;;;;;;;;;;;;;3.84;100.00;97048.00;5072408;28;20424;-79
2023/03/06 01:57:18;;;;;;;;;;;;;;;3.86;100.00;97045.91;5073328;28;19984;-80
2023/03/06 01:59:44;;;;;;;;;;;;;;;3.84;100.00;97053.28;5071418;28;19924;-79
2023/03/06 02:02:12;;;;;;;;;;;;;;;3.89;100.00;97045.44;5071906;28;19924;-78
2023/03/06 02:04:41;;;;;;;;;;;;;;;3.82;100.00;97042.16;5070963;28;19928;-79
2023/03/06 02:07:08;;;;;;;;;;;;;;;3.79;100.00;97045.28;5068366;28;19931;-80
2023/03/06 02:09:36;;;;;;;;;;;;;;;3.83;100.00;97030.56;5067903;28;19924;-79
2023/03/06 02:12:06;;;;;;;;;;;;;;;3.79;100.00;97026.78;5068681;28;20333;-79
2023/03/06 02:14:32;;;;;;;;;;;;;;;3.84;100.00;97026.09;5065795;28;19928;-80
2023/03/06 02:16:58;;;;;;;;;;;;;;;3.85;100.00;97023.19;5077056;28;19928;-78
2023/03/06 02:19:31;;;;;;;;;;;;;;;3.88;100.00;97017.41;5076417;28;19977;-79
2023/03/06 02:21:59;;;;;;;;;;;;;;;3.85;100.00;97012.63;5076609;28;19928;-80
2023/03/06 02:24:31;;;;;;;;;;;;;;;3.80;100.00;97002.81;5069072;28;19933;-79
2023/03/06 02:27:00;;;;;;;;;;;;;;;3.75;100.00;97007.97;5074540;28;19931;-79
2023/03/06 02:29:27;;;;;;;;;;;;;;;3.72;100.00;97002.38;5069723;28;19925;-79
2023/03/06 02:31:54;;;;;;;;;;;;;;;3.71;100.00;97006.09;5059085;28;20430;-80
2023/03/06 02:34:39;;;;;;;;;;;;;;;3.72;100.00;97002.38;5075154;28;19936;-78
2023/03/06 02:37:08;;;;;;;;;;;;;;;3.59;100.00;97002.72;5054640;28;20434;-80
2023/03/06 02:39:38;;;;;;;;;;;;;;;3.51;100.00;97001.28;5041517;28;20395;-78
2023/03/06 02:42:06;;;;;;;;;;;;;;;3.56;100.00;96993.44;5063070;28;19928;-79
2023/03/06 02:44:33;;;;;;;;;;;;;;;3.61;100.00;96995.38;5058868;28;19935;-79
2023/03/06 02:46:59;;;;;;;;;;;;;;;3.65;100.00;96991.97;5071227;28;19935;-79
2023/03/06 02:49:26;;;;;;;;;;;;;;;3.70;100.00;96988.63;5072200;28;20019;-79
2023/03/06 02:51:52;;;;;;;;;;;;;;;3.72;100.00;96989.19;5069923;28;20064;-79
2023/03/06 02:54:18;;;;;;;;;;;;;;;3.71;100.00;96990.25;5051102;28;19938;-79
2023/03/06 02:56:45;;;;;;;;;;;;;;;3.62;100.00;96991.69;5063926;28;20620;-80
2023/03/06 02:59:13;;;;;;;;;;;;;;;3.64;100.00;96989.59;5049489;28;19934;-80
2023/03/06 03:01:39;;;;;;;;;;;;;;;3.71;100.00;96984.97;5046767;28;19931;-79
2023/03/06 03:04:05;;;;;;;;;;;;;;;3.65;100.00;96983.28;5069085;28;19928;-78
2023/03/06 03:06:32;;;;;;;;;;;;;;;3.64;100.00;96979.03;5056876;28;19935;-79
2023/03/06 03:08:58;;;;;;;;;;;;;;;3.70;100.00;96983.34;5074627;28;19928;-79
2023/03/06 03:11:24;;;;;;;;;;;;;;;3.73;100.00;96977.59;5070592;28;19928;-78
2023/03/06 03:13:50;;;;;;;;;;;;;;;3.79;100.00;96976.63;5073942;28;19932;-79
2023/03/06 03:16:18;;;;;;;;;;;;;;;3.80;100.00;96976.41;5070321;28;19935;-78
2023/03/06 03:18:46;;;;;;;;;;;;;;;3.74;100.00;96973.91;5074188;28;19924;-80
2023/03/06 03:21:14;;;;;;;;;;;;;;;3.75;100.00;96972.84;5079823;28;19973;-79
2023/03/06 03:23:40;;;;;;;;;;;;;;;3.73;100.00;96973.13;5071087;28;19957;-79
2023/03/06 03:26:07;;;;;;;;;;;;;;;3.69;100.00;96966.72;5067333;28;19947;-78
2023/03/06 03:28:33;;;;;;;;;;;;;;;3.58;100.00;96956.25;5071192;28;20642;-79
2023/03/06 03:31:02;;;;;;;;;;;;;;;3.58;100.00;96959.69;5066900;28;20302;-78
2023/03/06 03:33:29;;;;;;;;;;;;;;;3.59;100.00;96957.84;5040036;28;20035;-79
2023/03/06 03:35:56;;;;;;;;;;;;;;;3.60;100.00;96951.50;5057454;28;20579;-79
2023/03/06 03:38:23;;;;;;;;;;;;;;;3.58;100.00;96948.31;5064754;28;19928;-78
2023/03/06 03:40:49;;;;;;;;;;;;;;;3.56;100.00;96956.47;5072215;28;19924;-79
2023/03/06 03:43:15;;;;;;;;;;;;;;;3.49;100.00;96955.06;5068630;28;19925;-78
2023/03/06 03:45:41;;;;;;;;;;;;;;;3.52;100.00;96946.66;5070870;28;19935;-78
2023/03/06 03:48:08;;;;;;;;;;;;;;;3.49;100.00;96937.38;5073859;28;19924;-79
2023/03/06 03:50:36;;;;;;;;;;;;;;;3.34;100.00;96939.78;5075843;28;20433;-79
2023/03/06 03:53:02;;;;;;;;;;;;;;;3.13;100.00;96943.94;5077814;28;19924;-79
2023/03/06 03:55:29;;;;;;;;;;;;;;;3.02;100.00;96929.00;5072098;28;20375;-79
2023/03/06 03:57:55;;;;;;;;;;;;;;;3.03;100.00;96929.78;5047761;28;19954;-79
2023/03/06 04:00:21;;;;;;;;;;;;;;;3.15;100.00;96928.69;5073399;28;20027;-78
2023/03/06 04:02:48;;;;;;;;;;;;;;;3.31;100.00;96929.72;5072932;28;20606;-78
2023/03/06 04:05:15;;;;;;;;;;;;;;;3.29;100.00;96921.22;5071679;28;20700;-79
2023/03/06 04:07:43;;;;;;;;;;;;;;;3.08;100.00;96927.22;5071749;28;19939;-79
2023/03/06 04:10:10;;;;;;;;;;;;;;;2.85;100.00;96922.88;5062333;28;19928;-79
2023/03/06 04:12:37;;;;;;;;;;;;;;;2.75;100.00;96928.00;5075561;28;19928;-78
2023/03/06 04:15:03;;;;;;;;;;;;;;;2.86;100.00;96921.03;5070253;28;19928;-78
2023/03/06 04:17:32;;;;;;;;;;;;;;;3.08;100.00;96928.03;5057130;28;20022;-78
2023/03/06 04:19:59;;;;;;;;;;;;;;;2.90;100.00;96920.34;5059395;28;20624;-79
2023/03/06 04:22:25;;;;;;;;;;;;;;;2.84;100.00;96910.75;5064089;28;20126;-78
2023/03/06 04:24:53;;;;;;;;;;;;;;;2.67;100.00;96918.63;5059941;28;19932;-79
2023/03/06 04:27:19;;;;;;;;;;;;;;;2.51;100.00;96919.38;5071757;28;19928;-78
2023/03/06 04:29:46;;;;;;;;;;;;;;;2.55;100.00;96919.72;5046278;28;19925;-78
2023/03/06 04:32:14;;;;;;;;;;;;;;;2.59;100.00;96923.47;5075955;28;19928;-78
2023/03/06 04:34:40;;;;;;;;;;;;;;;2.62;100.00;96917.75;5072247;28;20030;-79
2023/03/06 04:37:08;;;;;;;;;;;;;;;2.71;100.00;96908.41;5055815;28;20387;-79
2023/03/06 04:39:35;;;;;;;;;;;;;;;2.65;100.00;96909.38;5069356;28;19928;-79
2023/03/06 04:42:02;;;;;;;;;;;;;;;2.73;100.00;96916.88;5075360;28;19928;-79
2023/03/06 04:44:29;;;;;;;;;;;;;;;2.80;100.00;96909.63;5071408;28;19928;-78
2023/03/06 04:46:55;;;;;;;;;;;;;;;2.75;100.00;96906.91;5074392;28;19967;-80
2023/03/06 04:49:21;;;;;;;;;;;;;;;2.51;100.00;96906.19;5066096;28;20343;-79
2023/03/06 04:51:48;;;;;;;;;;;;;;;2.40;100.00;96904.44;5070214;28;19931;-80
2023/03/06 04:54:14;;;;;;;;;;;;;;;2.44;100.00;96897.66;5052397;28;19929;-80
2023/03/06 04:56:40;;;;;;;;;;;;;;;2.44;100.00;96894.22;5055338;28;19928;-79
2023/03/06 04:59:08;;;;;;;;;;;;;;;2.39;100.00;96891.47;5077253;28;19924;-80
2023/03/06 05:01:34;;;;;;;;;;;;;;;2.39;100.00;96886.22;5056434;28;20324;-79
2023/03/06 05:04:01;;;;;;;;;;;;;;;2.37;100.00;96890.94;5060144;28;19929;-78
2023/03/06 05:06:27;;;;;;;;;;;;;;;2.35;100.00;96887.75;5045225;28;19924;-79
2023/03/06 05:08:53;;;;;;;;;;;;;;;2.63;100.00;96885.09;5070596;28;20453;-79
2023/03/06 05:11:19;;;;;;;;;;;;;;;2.71;100.00;96882.06;5070997;28;19928;-79
2023/03/06 05:13:46;;;;;;;;;;;;;;;2.80;100.00;96887.72;5072474;28;20000;-78
2023/03/06 05:16:13;;;;;;;;;;;;;;;2.61;100.00;96884.50;5063469;28;19924;-80
2023/03/06 05:18:40;;;;;;;;;;;;;;;2.52;100.00;96891.19;5048269;28;20407;-80
2023/03/06 05:21:06;;;;;;;;;;;;;;;2.65;100.00;96881.16;5059696;28;20023;-79
2023/03/06 05:23:34;;;;;;;;;;;;;;;2.87;100.00;96883.91;5058434;28;19924;-78
2023/03/06 05:26:00;;;;;;;;;;;;;;;2.67;100.00;96884.34;5056536;28;19931;-78
2023/03/06 05:28:27;;;;;;;;;;;;;;;2.43;100.00;96887.34;5066522;28;20391;-78
2023/03/06 05:30:53;;;;;;;;;;;;;;;2.47;100.00;96886.66;5073863;28;19955;-78
2023/03/06 05:33:21;;;;;;;;;;;;;;;2.42;100.00;96880.47;5065805;28;19935;-80
2023/03/06 05:35:48;;;;;;;;;;;;;;;2.42;100.00;96880.47;5065577;28;19931;-79
2023/03/06 05:38:15;;;;;;;;;;;;;;;2.29;100.00;96876.28;5072162;28;19927;-80
2023/03/06 05:40:42;;;;;;;;;;;;;;;2.36;100.00;96873.50;5054129;28;20308;-79
2023/03/06 05:43:10;;;;;;;;;;;;;;;2.26;100.00;96874.13;5078369;28;19924;-79
2023/03/06 05:45:37;;;;;;;;;;;;;;;2.14;100.00;96863.63;5070964;28;20015;-79
2023/03/06 05:48:03;;;;;;;;;;;;;;;2.10;100.00;96861.72;5072915;28;19928;-78
2023/03/06 05:50:31;;;;;;;;;;;;;;;2.10;100.00;96874.88;5074292;28;19928;-79
2023/03/06 05:52:57;;;;;;;;;;;;;;;2.08;100.00;96869.03;5066743;28;19939;-78
2023/03/06 05:55:24;;;;;;;;;;;;;;;2.04;100.00;96870.56;5078791;28;20383;-80
2023/03/06 05:57:50;;;;;;;;;;;;;;;2.07;100.00;96873.50;5069331;28;19925;-79
2023/03/06 06:00:18;;;;;;;;;;;;;;;2.03;100.00;96877.66;5054162;28;20372;-79
2023/03/06 06:02:44;;;;;;;;;;;;;;;2.07;100.00;96876.13;5071543;28;20004;-78
2023/03/06 06:05:11;;;;;;;;;;;;;;;2.17;100.00;96886.06;5075477;28;19934;-77
2023/03/06 06:07:39;;;;;;;;;;;;;;;2.14;100.00;96879.44;5068766;28;20389;-78
2023/03/06 06:10:06;;;;;;;;;;;;;;;2.05;100.00;96872.94;5055739;28;19928;-79
2023/03/06 06:12:32;;;;;;;;;;;;;;;2.03;100.00;96876.84;5058208;28;19935;-78
2023/03/06 06:14:59;;;;;;;;;;;;;;;2.05;100.00;96870.31;5068205;28;19932;-78
2023/03/06 06:17:25;;;;;;;;;;;;;;;2.03;100.00;96880.28;5075564;28;20002;-77
2023/03/06 06:19:52;;;;;;;;;;;;;;;2.05;100.00;96875.56;5066996;28;19959;-79
2023/03/06 06:22:18;;;;;;;;;;;;;;;2.04;100.00;96879.22;5056197;28;19962;-80
2023/03/06 06:24:46;;;;;;;;;;;;;;;1.94;100.00;96871.16;5075208;28;19935;-80
2023/03/06 06:27:12;;;;;;;;;;;;;;;2.02;100.00;96878.69;5058186;28;19924;-78
2023/03/06 06:29:38;;;;;;;;;;;;;;;1.97;100.00;96878.59;5073269;28;19928;-79
2023/03/06 06:32:05;;;;;;;;;;;;;;;2.00;100.00;96883.38;5080269;28;19924;-79
2023/03/06 06:34:31;;;;;;;;;;;;;;;2.04;100.00;96876.59;5076838;28;20124;-78
2023/03/06 06:36:58;;;;;;;;;;;;;;;2.00;100.00;96872.84;5061696;28;19932;-79
2023/03/06 06:39:24;;;;;;;;;;;;;;;2.08;100.00;96872.47;5081736;28;19932;-80
2023/03/06 06:41:52;;;;;;;;;;;;;;;2.23;100.00;96868.53;5078619;28;20576;-79
2023/03/06 06:44:19;;;;;;;;;;;;;;;2.42;100.00;96876.00;5078796;28;19928;-79
2023/03/06 06:46:46;;;;;;;;;;;;;;;2.21;100.00;96870.59;5059547;28;19928;-78
2023/03/06 06:49:12;;;;;;;;;;;;;;;2.15;100.00;96867.88;5061700;28;19923;-78
2023/03/06 06:51:39;;;;;;;;;;;;;;;2.13;100.00;96867.31;5054829;28;19924;-78
2023/03/06 06:54:06;;;;;;;;;;;;;;;2.00;100.00;96870.22;5080171;28;19951;-79
2023/03/06 06:56:32;;;;;;;;;;;;;;;1.90;100.00;96872.66;5078396;28;20292;-79
2023/03/06 06:59:00;;;;;;;;;;;;;;;1.83;100.00;96868.53;5056211;28;20023;-79
2023/03/06 07:01:27;;;;;;;;;;;;;;;1.69;100.00;96862.75;5070092;28;19931;-79
2023/03/06 07:03:53;;;;;;;;;;;;;;;1.70;100.00;96863.56;5063959;28;19934;-78
2023/03/06 07:06:20;;;;;;;;;;;;;;;1.89;100.00;96870.25;5071450;28;20005;-79
2023/03/06 07:08:46;;;;;;;;;;;;;;;1.92;100.00;96875.06;5069059;28;20352;-78
2023/03/06 07:11:14;;;;;;;;;;;;;;;2.01;100.00;96871.81;5064709;28;19924;-78
2023/03/06 07:13:40;;;;;;;;;;;;;;;1.90;100.00;96867.38;5062529;28;19978;-78
2023/03/06 07:16:08;;;;;;;;;;;;;;;1.83;100.00;96876.44;5075526;28;20608;-78
2023/03/06 07:18:35;;;;;;;;;;;;;;;1.89;100.00;96873.66;5053860;28;20722;-78
2023/03/06 07:21:01;;;;;;;;;;;;;;;1.93;100.00;96866.91;5077814;28;20018;-79
2023/03/06 07:23:27;;;;;;;;;;;;;;;1.93;100.00;96876.63;5072372;28;19938;-78
2023/03/06 07:25:54;;;;;;;;;;;;;;;1.96;100.00;96874.34;5078550;28;19928;-79
2023/03/06 07:28:20;;;;;;;;;;;;;;;2.00;100.00;96874.69;5080442;28;19924;-80
2023/03/06 07:30:47;;;;;;;;;;;;;;;2.10;100.00;96873.03;5059681;28;19924;-79
2023/03/06 07:33:15;;;;;;;;;;;;;;;2.09;100.00;96874.09;5063018;28;19928;-79
2023/03/06 07:35:42;;;;;;;;;;;;;;;2.02;100.00;96870.78;5078891;28;20643;-79
2023/03/06 07:38:08;;;;;;;;;;;;;;;2.14;100.00;96884.69;5079345;28;19924;-78
2023/03/06 07:40:35;;;;;;;;;;;;;;;2.08;100.00;96875.09;5078886;28;19931;-80
2023/03/06 07:43:01;;;;;;;;;;;;;;;2.13;100.00;96871.78;5079747;28;19934;-79
2023/03/06 07:45:28;;;;;;;;;;;;;;;2.24;100.00;96878.03;5075764;28;19924;-79
2023/03/06 07:47:54;;;;;;;;;;;;;;;2.26;100.00;96871.47;5079817;28;19928;-79
2023/03/06 07:50:22;;;;;;;;;;;;;;;2.39;100.00;96875.66;5077300;28;19932;-79
2023/03/06 07:52:48;;;;;;;;;;;;;;;2.31;100.00;96876.06;5062206;28;20726;-79
2023/03/06 07:55:15;;;;;;;;;;;;;;;2.33;100.00;96884.53;5073538;28;20543;-78
2023/03/06 07:57:41;;;;;;;;;;;;;;;2.35;100.00;96880.63;5053142;28;19966;-79
2023/03/06 08:00:09;;;;;;;;;;;;;;;2.49;100.00;96886.41;5058291;28;19924;-78
2023/03/06 08:02:36;;;;;;;;;;;;;;;2.45;100.00;96885.25;5062761;28;19928;-78
2023/03/06 08:05:02;;;;;;;;;;;;;;;2.41;100.00;96882.31;5071389;28;20019;-78
2023/03/06 08:07:30;;;;;;;;;;;;;;;2.47;100.00;96885.84;5056394;28;19928;-79
2023/03/06 08:09:56;;;;;;;;;;;;;;;2.46;100.00;96892.16;5069972;28;19963;-78
2023/03/06 08:12:23;;;;;;;;;;;;;;;2.56;100.00;96889.69;5075215;28;19931;-78
2023/03/06 08:14:49;;;;;;;;;;;;;;;2.57;100.00;96896.53;5064158;28;19925;-79
2023/03/06 08:17:15;;;;;;;;;;;;;;;2.77;100.00;96904.03;5067777;28;19925;-79
2023/03/06 08:19:42;;;;;;;;;;;;;;;2.60;100.00;96896.09;5067250;28;19930;-78
2023/03/06 08:22:09;;;;;;;;;;;;;;;2.65;100.00;96901.44;5077320;28;19934;-79
2023/03/06 08:24:37;;;;;;;;;;;;;;;2.63;100.00;96895.63;5069080;28;19959;-78
2023/03/06 08:27:03;;;;;;;;;;;;;;;2.70;100.00;96904.16;5078466;28;19928;-80
2023/03/06 08:29:30;;;;;;;;;;;;;;;2.78;100.00;96903.00;5073342;28;19924;-79
2023/03/06 08:31:56;;;;;;;;;;;;;;;2.77;100.00;96906.66;5070641;28;19935;-77
2023/03/06 08:34:24;;;;;;;;;;;;;;;2.85;100.00;96903.66;5060004;28;20517;-78
2023/03/06 08:36:50;;;;;;;;;;;;;;;2.91;100.00;96903.47;5072341;28;19928;-79
2023/03/06 08:39:17;;;;;;;;;;;;;;;2.91;100.00;96911.38;5070064;28;20477;-79
2023/03/06 08:41:44;;;;;;;;;;;;;;;2.92;100.00;96913.00;5072791;28;19930;-78
2023/03/06 08:44:11;;;;;;;;;;;;;;;2.93;100.00;96919.88;5074816;28;19928;-78
2023/03/06 08:46:37;;;;;;;;;;;;;;;2.89;100.00;96904.75;5042189;28;19970;-79
2023/03/06 08:49:03;;;;;;;;;;;;;;;3.06;100.00;96909.03;5058350;28;20409;-78
2023/03/06 08:51:30;;;;;;;;;;;;;;;3.15;100.00;96907.56;5056610;28;19928;-78
2023/03/06 08:53:56;;;;;;;;;;;;;;;3.19;100.00;96916.59;5066785;28;19924;-78
2023/03/06 08:56:24;;;;;;;;;;;;;;;3.21;100.00;96911.91;5049566;28;19924;-79
2023/03/06 08:58:52;;;;;;;;;;;;;;;3.32;100.00;96907.56;5060380;28;20517;-78
2023/03/06 09:01:21;;;;;;;;;;;;;;;3.52;100.00;96907.06;5068502;28;20380;-78
2023/03/06 09:03:47;;;;;;;;;;;;;;;3.53;100.00;96898.88;5068500;28;19931;-78
2023/03/06 09:06:14;;;;;;;;;;;;;;;3.58;100.00;96900.81;5076126;28;19928;-78
2023/03/06 09:08:41;;;;;;;;;;;;;;;3.53;100.00;96898.13;5069885;28;19928;-79
2023/03/06 09:11:08;;;;;;;;;;;;;;;3.74;100.00;96892.84;5064437;28;20497;-79
2023/03/06 09:13:34;;;;;;;;;;;;;;;3.78;100.00;96896.59;5072304;28;19928;-79
2023/03/06 09:16:02;;;;;;;;;;;;;;;3.75;100.00;96891.00;5068336;28;19928;-79
2023/03/06 09:18:29;;;;;;;;;;;;;;;3.44;100.00;96902.19;5071117;28;20445;-79
2023/03/06 09:20:55;;;;;;;;;;;;;;;3.61;100.00;96895.84;5066252;28;19928;-79
2023/03/06 09:23:21;;;;;;;;;;;;;;;3.69;100.00;96886.69;5073100;28;19932;-79
2023/03/06 09:25:51;;;;;;;;;;;;;;;3.64;100.00;96891.91;5057469;28;19982;-79
2023/03/06 09:28:18;;;;;;;;;;;;;;;3.68;100.00;96901.72;5058913;28;20471;-79
2023/03/06 09:30:44;;;;;;;;;;;;;;;3.57;100.00;96893.94;5075381;28;19928;-79
2023/03/06 09:33:12;;;;;;;;;;;;;;;3.69;100.00;96891.97;5054080;28;20663;-79
2023/03/06 09:35:41;;;;;;;;;;;;;;;3.64;100.00;96894.56;5067562;28;19924;-79
2023/03/06 09:38:08;;;;;;;;;;;;;;;3.66;100.00;96892.47;5067690;28;19931;-79
2023/03/06 09:40:42;;;;;;;;;;;;;;;3.72;100.00;96886.22;5046770;28;20080;-79
2023/03/06 09:43:15;;;;;;;;;;;;;;;3.68;100.00;96885.13;5068457;28;20591;-79
2023/03/06 09:45:41;;;;;;;;;;;;;;;3.68;100.00;96879.84;5072945;28;20600;-80
2023/03/06 09:48:13;;;;;;;;;;;;;;;3.70;100.00;96872.47;5072920;28;19928;-78
2023/03/06 09:50:44;;;;;;;;;;;;;;;3.70;100.00;96885.66;5071794;28;19932;-79
2023/03/06 09:53:22;;;;;;;;;;;;;;;3.83;100.00;96882.69;5054076;28;19973;-79
2023/03/06 09:55:55;;;;;;;;;;;;;;;4.20;100.00;96878.38;5067238;28;19932;-79
2023/03/06 09:58:23;;;;;;;;;;;;;;;4.32;100.00;96876.38;5065516;28;19935;-78
2023/03/06 10:00:56;;;;;;;;;;;;;;;3.97;100.00;96877.81;5068861;28;19935;-78
2023/03/06 10:03:25;;;;;;;;;;;;;;;4.34;100.00;96882.22;5065696;28;19946;-79
2023/03/06 10:05:57;;;;;;;;;;;;;;;4.51;100.00;96876.03;5068131;28;19948;-80
2023/03/06 10:08:26;;;;;;;;;;;;;;;4.24;100.00;96865.47;5065659;28;20035;-79
2023/03/06 10:10:57;;;;;;;;;;;;;;;4.07;100.00;96862.88;5065095;28;20462;-79
2023/03/06 10:13:26;;;;;;;;;;;;;;;4.09;100.00;96860.00;5053337;28;19924;-78
2023/03/06 10:15:54;;;;;;;;;;;;;;;4.11;100.00;96858.72;5051852;28;19924;-78
2023/03/06 10:18:21;;;;;;;;;;;;;;;4.16;100.00;96855.31;5068039;28;20334;-78
2023/03/06 10:20:49;;;;;;;;;;;;;;;4.20;100.00;96857.22;5069142;28;19928;-78
2023/03/06 10:23:33;;;;;;;;;;;;;;;4.28;100.00;96859.41;5071353;28;19939;-77
2023/03/06 10:26:00;;;;;;;;;;;;;;;4.17;100.00;96852.44;5075689;28;19924;-78
2023/03/06 10:28:29;;;;;;;;;;;;;;;4.21;100.00;96855.38;5038846;28;19979;-78
2023/03/06 10:30:59;;;;;;;;;;;;;;;4.32;100.00;96849.16;5067390;28;19934;-79
2023/03/06 10:33:33;;;;;;;;;;;;;;;4.45;100.00;96853.25;5057536;28;20595;-79
2023/03/06 10:35:59;;;;;;;;;;;;;;;4.79;100.00;96846.69;5055290;28;19930;-77
2023/03/06 10:38:36;;;;;;;;;;;;;;;4.65;100.00;96841.00;5069158;28;20022;-79
2023/03/06 10:41:19;;;;;;;;;;;;;;;4.74;100.00;96839.50;5072598;28;19943;-77
2023/03/06 10:44:06;;;;;;;;;;;;;;;4.93;100.00;96834.63;5055093;28;20027;-79
2023/03/06 10:46:34;;;;;;;;;;;;;;;4.98;100.00;96832.03;5069738;28;20308;-78
2023/03/06 10:49:02;;;;;;;;;;;;;;;4.82;100.00;96825.84;5063847;28;19967;-78
2023/03/06 10:51:29;;;;;;;;;;;;;;;4.81;100.00;96831.38;5068541;28;19924;-77
2023/03/06 10:53:57;;;;;;;;;;;;;;;4.78;100.00;96827.38;5067098;28;19934;-78
2023/03/06 10:56:28;;;;;;;;;;;;;;;4.62;100.00;96817.72;5063551;28;20015;-77
2023/03/06 10:59:08;;;;;;;;;;;;;;;4.70;100.00;96829.69;5061923;28;19928;-76
2023/03/06 11:01:35;;;;;;;;;;;;;;;4.66;100.00;96833.88;5078457;28;19928;-78
2023/03/06 11:04:15;;;;;;;;;;;;;;;4.87;100.00;96822.41;5075275;28;19928;-81
2023/03/06 11:06:41;;;;;;;;;;;;;;;4.78;100.00;96827.38;5074889;28;19924;-79
2023/03/06 11:09:16;;;;;;;;;;;;;;;4.73;100.00;96823.91;5069345;28;19931;-78
2023/03/06 11:11:43;;;;;;;;;;;;;;;4.86;100.00;96828.75;5074820;28;19924;-78
2023/03/06 11:14:14;;;;;;;;;;;;;;;4.90;100.00;96835.13;5070738;28;20529;-79
2023/03/06 11:16:51;;;;;;;;;;;;;;;4.99;100.00;96827.53;5063860;28;20505;-80
2023/03/06 11:19:19;;;;;;;;;;;;;;;5.00;100.00;96818.53;5069208;28;19932;-78
2023/03/06 11:21:58;;;;;;;;;;;;;;;5.07;100.00;96812.00;5075947;28;20031;-79
2023/03/06 11:24:27;;;;;;;;;;;;;;;5.20;100.00;96811.53;5056078;28;19943;-78
2023/03/06 11:26:54;;;;;;;;;;;;;;;4.90;100.00;96816.63;5057361;28;20386;-80
2023/03/06 11:29:29;;;;;;;;;;;;;;;5.18;100.00;96811.00;5060292;28;19933;-78
2023/03/06 11:31:58;;;;;;;;;;;;;;;4.89;100.00;96801.78;5070593;28;19934;-79
2023/03/06 11:34:38;;;;;;;;;;;;;;;4.89;100.00;96807.09;5062365;28;19928;-80
2023/03/06 11:37:07;;;;;;;;;;;;;;;5.16;100.00;96802.53;5067923;28;19931;-78
2023/03/06 11:39:38;;;;;;;;;;;;;;;5.29;100.00;96798.63;5071894;28;20555;-80
2023/03/06 11:42:10;;;;;;;;;;;;;;;5.05;100.00;96800.06;5069019;28;19924;-80
2023/03/06 11:44:43;;;;;;;;;;;;;;;5.01;100.00;96791.03;5068210;28;19928;-79
2023/03/06 11:47:15;;;;;;;;;;;;;;;4.90;100.00;96796.25;5052624;28;19934;-78
2023/03/06 11:49:43;;;;;;;;;;;;;;;4.94;100.00;96793.09;5071108;28;19931;-79
2023/03/06 11:52:15;;;;;;;;;;;;;;;4.95;100.00;96790.22;5049090;28;19923;-80
2023/03/06 11:54:43;;;;;;;;;;;;;;;4.97;100.00;96787.31;5065659;28;19936;-80
2023/03/06 11:57:14;;;;;;;;;;;;;;;4.95;100.00;96787.56;5047024;28;19924;-78
2023/03/06 11:59:51;;;;;;;;;;;;;;;5.13;100.00;96781.06;5062055;28;20767;-79
2023/03/06 12:02:21;;;;;;;;;;;;;;;4.99;100.00;96786.00;5056226;28;19928;-78
2023/03/06 12:04:53;;;;;;;;;;;;;;;4.98;100.00;96776.47;5064255;28;19924;-79
2023/03/06 12:07:21;;;;;;;;;;;;;;;5.02;100.00;96780.19;5059175;28;19943;-79
2023/03/06 12:09:52;;;;;;;;;;;;;;;5.03;100.00;96773.84;5066804;28;19930;-80
2023/03/06 12:12:27;;;;;;;;;;;;;;;5.04;100.00;96770.16;5062083;28;19928;-79
2023/03/06 12:15:02;;;;;;;;;;;;;;;5.00;100.00;96765.63;5052466;28;19935;-79
2023/03/06 12:17:35;;;;;;;;;;;;;;;5.17;100.00;96769.69;5038665;28;19934;-79
2023/03/06 12:20:20;;;;;;;;;;;;;;;5.19;100.00;96764.97;5065768;28;19928;-77
2023/03/06 12:22:50;;;;;;;;;;;;;;;5.17;100.00;96763.63;5073480;28;20379;-79
2023/03/06 12:25:32;;;;;;;;;;;;;;;5.28;100.00;96767.91;5055531;28;19985;-80
2023/03/06 12:28:06;;;;;;;;;;;;;;;5.49;100.00;96766.16;5067264;28;19924;-79
2023/03/06 12:30:47;;;;;;;;;;;;;;;5.56;100.00;96750.84;5072749;28;20035;-80
2023/03/06 12:33:20;;;;;;;;;;;;;;;5.35;100.00;96763.97;5057143;28;19924;-79
2023/03/06 12:35:55;;;;;;;;;;;;;;;5.63;100.00;96752.19;5054247;28;20403;-79
2023/03/06 12:38:31;;;;;;;;;;;;;;;5.56;100.00;96750.84;5050292;28;19928;-80
2023/03/06 12:41:05;;;;;;;;;;;;;;;5.41;100.00;96741.78;5054665;28;19928;-78
2023/03/06 12:43:47;;;;;;;;;;;;;;;5.75;100.00;96746.69;5042731;28;19928;-78
2023/03/06 12:46:15;;;;;;;;;;;;;;;5.46;100.00;96738.34;5060926;28;19928;-79
2023/03/06 12:48:43;;;;;;;;;;;;;;;5.72;100.00;96741.91;5047703;28;20439;-79
2023/03/06 12:51:11;;;;;;;;;;;;;;;5.68;100.00;96746.13;5062402;28;19947;-78
2023/03/06 12:53:37;;;;;;;;;;;;;;;5.72;100.00;96739.25;5067888;28;19934;-78